createdAt,value
2022-09-01T00:00:44.909Z,101287.13
2022-09-01T00:03:11.931Z,101290.13
2022-09-01T00:05:38.391Z,101293.88
2022-09-01T00:08:05.749Z,101287.72
2022-09-01T00:10:32.264Z,101287.72
2022-09-01T00:12:59.566Z,101286.78
2022-09-01T00:15:26.535Z,101287.66
2022-09-01T00:17:53.076Z,101287.72
2022-09-01T00:20:20.694Z,101298.53
2022-09-01T00:22:47.996Z,101296.88
2022-09-01T00:25:14.514Z,101296.25
2022-09-01T00:27:40.985Z,101301.56
2022-09-01T00:30:08.123Z,101299.22
2022-09-01T00:32:34.877Z,101303.63
2022-09-01T00:35:01.768Z,101296.63
2022-09-01T00:37:28.287Z,101292.31
2022-09-01T00:39:54.788Z,101296.56
2022-09-01T00:42:21.306Z,101292.06
2022-09-01T00:44:48.019Z,101290.53
2022-09-01T00:47:15.064Z,101289.00
2022-09-01T00:49:45.340Z,101284.69
2022-09-01T00:52:20.879Z,101287.47
2022-09-01T00:54:53.500Z,101290.25
2022-09-01T00:57:20.044Z,101291.16
2022-09-01T00:59:53.470Z,101287.53
2022-09-01T01:02:20.045Z,101287.53
2022-09-01T01:04:46.635Z,101278.78
2022-09-01T01:07:14.071Z,101287.66
2022-09-01T01:09:43.778Z,101281.63
2022-09-01T01:12:13.701Z,101280.63
2022-09-01T01:14:41.638Z,101279.63
2022-09-01T01:17:12.254Z,101282.75
2022-09-01T01:20:02.612Z,101280.16
2022-09-01T01:23:09.038Z,101280.16
2022-09-01T01:25:38.550Z,101283.53
2022-09-01T01:28:09.815Z,101289.50
2022-09-01T01:30:40.124Z,101283.13
2022-09-01T01:33:07.750Z,101284.75
2022-09-01T01:35:35.399Z,101286.53
2022-09-01T01:38:07.565Z,101291.00
2022-09-01T01:40:34.178Z,101298.94
2022-09-01T01:43:03.655Z,101293.56
2022-09-01T01:45:31.004Z,101289.19
2022-09-01T01:47:57.768Z,101295.50
2022-09-01T01:50:33.440Z,101301.06
2022-09-01T01:53:02.762Z,101303.84
2022-09-01T01:55:31.102Z,101302.38
2022-09-01T01:57:58.681Z,101294.47
2022-09-01T02:00:30.365Z,101305.13
2022-09-01T02:02:58.543Z,101305.97
2022-09-01T02:05:29.463Z,101310.50
2022-09-01T02:07:59.970Z,101300.66
2022-09-01T02:10:30.944Z,101310.31
2022-09-01T02:13:07.316Z,101304.31
2022-09-01T02:15:42.335Z,101307.22
2022-09-01T02:18:09.486Z,101308.03
2022-09-01T02:20:36.704Z,101298.53
2022-09-01T02:23:09.312Z,101318.75
2022-09-01T02:25:45.864Z,101303.91
2022-09-01T02:28:23.141Z,101302.91
2022-09-01T02:30:55.035Z,101301.03
2022-09-01T02:33:22.661Z,101309.88
2022-09-01T02:35:54.726Z,101298.75
2022-09-01T02:38:26.207Z,101301.41
2022-09-01T02:40:53.652Z,101297.00
2022-09-01T02:43:21.868Z,101298.06
2022-09-01T02:45:55.514Z,101307.03
2022-09-01T02:48:35.751Z,101296.56
2022-09-01T02:51:14.100Z,101297.63
2022-09-01T02:53:43.087Z,101299.22
2022-09-01T02:56:15.357Z,101297.63
2022-09-01T02:58:46.327Z,101302.28
2022-09-01T03:01:27.155Z,101301.44
2022-09-01T03:03:57.524Z,101297.22
2022-09-01T03:06:24.868Z,101293.50
2022-09-01T03:08:56.919Z,101302.22
2022-09-01T03:11:24.558Z,101300.38
2022-09-01T03:13:52.250Z,101296.75
2022-09-01T03:16:19.078Z,101294.91
2022-09-01T03:18:46.083Z,101302.97
2022-09-01T03:21:17.061Z,101307.31
2022-09-01T03:23:47.979Z,101309.03
2022-09-01T03:26:16.196Z,101299.41
2022-09-01T03:28:42.650Z,101312.59
2022-09-01T03:31:09.318Z,101309.09
2022-09-01T03:33:36.690Z,101311.91
2022-09-01T03:36:04.590Z,101304.19
2022-09-01T03:38:33.429Z,101305.19
2022-09-01T03:41:03.470Z,101303.47
2022-09-01T03:43:35.646Z,101306.31
2022-09-01T03:46:03.331Z,101307.19
2022-09-01T03:48:31.656Z,101294.91
2022-09-01T03:51:03.119Z,101295.84
2022-09-01T03:53:33.661Z,101298.53
2022-09-01T03:56:00.269Z,101291.59
2022-09-01T03:58:27.503Z,101292.38
2022-09-01T04:00:56.771Z,101293.34
2022-09-01T04:03:28.793Z,101287.19
2022-09-01T04:05:56.886Z,101290.16
2022-09-01T04:08:27.464Z,101291.06
2022-09-01T04:11:02.952Z,101283.38
2022-09-01T04:13:39.213Z,101286.09
2022-09-01T04:16:29.809Z,101287.16
2022-09-01T04:18:56.342Z,101287.59
2022-09-01T04:21:22.821Z,101282.19
2022-09-01T04:23:49.311Z,101284.19
2022-09-01T04:26:20.372Z,101285.06
2022-09-01T04:28:49.523Z,101286.69
2022-09-01T04:31:19.370Z,101283.81
2022-09-01T04:33:48.887Z,101286.63
2022-09-01T04:36:19.634Z,101283.22
2022-09-01T04:38:47.664Z,101282.19
2022-09-01T04:41:17.520Z,101285.81
2022-09-01T04:43:47.288Z,101288.41
2022-09-01T04:46:20.567Z,101286.03
2022-09-01T04:48:48.023Z,101292.25
2022-09-01T04:51:15.515Z,101292.19
2022-09-01T04:53:48.609Z,101281.59
2022-09-01T04:56:20.745Z,101292.25
2022-09-01T04:58:47.901Z,101299.25
2022-09-01T05:01:21.881Z,101290.19
2022-09-01T05:03:56.445Z,101291.78
2022-09-01T05:06:23.341Z,101293.47
2022-09-01T05:08:50.330Z,101287.34
2022-09-01T05:11:17.786Z,101289.13
2022-09-01T05:13:46.615Z,101284.84
2022-09-01T05:16:15.988Z,101288.28
2022-09-01T05:18:48.875Z,101287.28
2022-09-01T05:21:18.763Z,101295.22
2022-09-01T05:23:46.986Z,101285.53
2022-09-01T05:26:19.109Z,101292.63
2022-09-01T05:28:51.072Z,101294.41
2022-09-01T05:31:19.656Z,101289.13
2022-09-01T05:33:48.396Z,101296.06
2022-09-01T05:36:18.102Z,101295.94
2022-09-01T05:38:45.408Z,101294.09
2022-09-01T05:41:16.723Z,101294.09
2022-09-01T05:43:46.369Z,101295.88
2022-09-01T05:46:16.875Z,101297.63
2022-09-01T05:48:44.461Z,101297.50
2022-09-01T05:51:42.572Z,101296.66
2022-09-01T05:54:08.047Z,101301.81
2022-09-01T05:56:44.080Z,101305.34
2022-09-01T05:59:28.394Z,101303.53
2022-09-01T06:01:55.596Z,101308.84
2022-09-01T06:04:25.506Z,101311.34
2022-09-01T06:07:10.369Z,101311.34
2022-09-01T06:09:48.250Z,101312.25
2022-09-01T06:12:20.284Z,101313.06
2022-09-01T06:14:48.417Z,101308.63
2022-09-01T06:17:16.548Z,101309.50
2022-09-01T06:19:43.915Z,101317.50
2022-09-01T06:22:10.897Z,101310.34
2022-09-01T06:24:39.848Z,101311.22
2022-09-01T06:27:09.937Z,101313.78
2022-09-01T06:29:39.724Z,101306.78
2022-09-01T06:32:09.828Z,101306.78
2022-09-01T06:34:42.609Z,101309.38
2022-09-01T06:37:13.424Z,101310.13
2022-09-01T06:39:40.192Z,101306.56
2022-09-01T06:42:09.436Z,101308.34
2022-09-01T06:44:40.621Z,101306.63
2022-09-01T06:47:09.029Z,101313.50
2022-09-01T06:49:36.628Z,101316.97
2022-09-01T06:52:04.773Z,101310.66
2022-09-01T06:54:35.428Z,101312.31
2022-09-01T06:58:03.408Z,101314.00
2022-09-01T06:59:52.519Z,101319.16
2022-09-01T07:02:39.550Z,101310.16
2022-09-01T07:05:07.882Z,101316.16
2022-09-01T07:10:23.628Z,101315.84
2022-09-01T07:13:08.980Z,101318.34
2022-09-01T07:18:28.627Z,101318.06
2022-09-01T07:21:05.506Z,101324.91
2022-09-01T07:24:10.696Z,101322.13
2022-09-01T07:26:26.752Z,101328.13
2022-09-01T07:29:01.004Z,101324.44
2022-09-01T07:32:43.454Z,101319.94
2022-09-01T07:34:38.932Z,101318.09
2022-09-01T07:39:53.447Z,101314.31
2022-09-01T07:47:56.531Z,101317.41
2022-09-01T07:50:39.929Z,101319.06
2022-09-01T07:53:09.364Z,101316.41
2022-09-01T07:55:42.249Z,101320.53
2022-09-01T07:58:11.797Z,101313.44
2022-09-01T08:00:40.041Z,101320.47
2022-09-01T08:03:06.678Z,101318.38
2022-09-01T08:05:33.970Z,101322.69
2022-09-01T08:08:01.177Z,101322.56
2022-09-01T08:10:28.326Z,101321.56
2022-09-01T08:12:56.753Z,101313.41
2022-09-01T08:15:41.777Z,101322.03
2022-09-01T08:18:14.275Z,101320.25
2022-09-01T08:20:45.751Z,101324.25
2022-09-01T08:23:14.860Z,101324.09
2022-09-01T08:25:42.583Z,101320.34
2022-09-01T08:28:09.766Z,101322.06
2022-09-01T08:30:39.200Z,101315.84
2022-09-01T08:33:12.928Z,101313.00
2022-09-01T08:35:41.975Z,101311.00
2022-09-01T08:38:09.445Z,101311.59
2022-09-01T08:40:37.066Z,101311.47
2022-09-01T08:43:24.954Z,101302.16
2022-09-01T08:45:54.934Z,101309.19
2022-09-01T08:51:23.699Z,101311.28
2022-09-01T08:54:01.644Z,101313.66
2022-09-01T08:56:28.579Z,101306.28
2022-09-01T08:58:55.566Z,101316.13
2022-09-01T09:01:35.250Z,101313.81
2022-09-01T09:04:27.804Z,101306.22
2022-09-01T09:07:10.758Z,101312.19
2022-09-01T09:09:54.067Z,101307.44
2022-09-01T09:12:48.948Z,101307.00
2022-09-01T09:15:47.440Z,101309.66
2022-09-01T09:18:40.972Z,101308.13
2022-09-01T09:21:19.459Z,101302.47
2022-09-01T09:23:50.776Z,101299.50
2022-09-01T09:26:22.224Z,101297.84
2022-09-01T09:28:50.098Z,101291.84
2022-09-01T09:31:27.027Z,101294.34
2022-09-01T09:33:55.139Z,101292.97
2022-09-01T09:36:29.582Z,101287.44
2022-09-01T09:39:06.949Z,101284.00
2022-09-01T09:41:33.527Z,101286.16
2022-09-01T09:44:05.198Z,101278.38
2022-09-01T09:46:31.715Z,101278.84
2022-09-01T09:49:26.341Z,101272.91
2022-09-01T09:52:03.150Z,101275.63
2022-09-01T09:54:34.801Z,101267.28
2022-09-01T09:57:04.836Z,101267.19
2022-09-01T09:59:56.972Z,101263.72
2022-09-01T10:02:37.287Z,101248.38
2022-09-01T10:05:26.494Z,101248.94
2022-09-01T10:07:54.793Z,101257.06
2022-09-01T10:10:30.387Z,101246.00
2022-09-01T10:12:59.025Z,101241.81
2022-09-01T10:15:30.140Z,101237.06
2022-09-01T10:18:21.030Z,101236.91
2022-09-01T10:21:01.930Z,101245.06
2022-09-01T10:23:31.063Z,101233.56
2022-09-01T10:26:09.502Z,101228.72
2022-09-01T10:28:49.932Z,101238.00
2022-09-01T10:31:17.937Z,101229.69
2022-09-01T10:33:45.313Z,101220.72
2022-09-01T10:36:15.310Z,101229.88
2022-09-01T10:38:46.875Z,101221.59
2022-09-01T10:42:00.097Z,101226.13
2022-09-01T10:44:35.936Z,101221.03
2022-09-01T10:47:29.843Z,101226.28
2022-09-01T10:50:00.127Z,101224.06
2022-09-01T10:52:43.774Z,101223.13
2022-09-01T10:55:25.184Z,101218.34
2022-09-01T10:58:09.542Z,101213.31
2022-09-01T11:03:56.213Z,101215.84
2022-09-01T11:06:42.172Z,101216.06
2022-09-01T11:09:23.573Z,101205.16
2022-09-01T11:12:13.823Z,101209.75
2022-09-01T11:14:59.730Z,101204.13
2022-09-01T11:17:29.304Z,101207.09
2022-09-01T11:20:21.892Z,101203.81
2022-09-01T11:22:57.410Z,101203.16
2022-09-01T11:25:40.850Z,101196.97
2022-09-01T11:28:27.706Z,101208.19
2022-09-01T11:31:20.535Z,101210.66
2022-09-01T11:34:03.256Z,101210.84
2022-09-01T11:36:31.379Z,101201.06
2022-09-01T11:39:20.951Z,101193.47
2022-09-01T11:41:59.696Z,101204.56
2022-09-01T11:44:37.583Z,101198.09
2022-09-01T11:47:16.512Z,101191.97
2022-09-01T11:49:55.026Z,101190.59
2022-09-01T11:52:25.417Z,101185.28
2022-09-01T11:54:52.072Z,101191.22
2022-09-01T11:57:23.150Z,101192.94
2022-09-01T11:59:50.149Z,101190.94
2022-09-01T12:02:36.671Z,101184.75
2022-09-01T12:05:31.324Z,101177.19
2022-09-01T12:07:59.559Z,101186.59
2022-09-01T12:10:40.321Z,101182.06
2022-09-01T12:13:08.401Z,101172.41
2022-09-01T12:15:46.450Z,101171.50
2022-09-01T12:18:30.445Z,101164.72
2022-09-01T12:21:02.188Z,101164.78
2022-09-01T12:23:32.497Z,101165.03
2022-09-01T12:26:02.591Z,101160.94
2022-09-01T12:28:33.045Z,101153.06
2022-09-01T12:31:02.449Z,101161.28
2022-09-01T12:33:34.827Z,101155.91
2022-09-01T12:36:26.203Z,101149.69
2022-09-01T12:38:54.482Z,101155.41
2022-09-01T12:41:39.968Z,101157.97
2022-09-01T12:44:37.457Z,101151.31
2022-09-01T12:47:10.174Z,101146.88
2022-09-01T12:49:51.301Z,101150.22
2022-09-01T12:52:27.634Z,101141.84
2022-09-01T12:55:04.157Z,101136.78
2022-09-01T12:57:34.676Z,101134.66
2022-09-01T13:00:14.934Z,101143.47
2022-09-01T13:02:45.128Z,101121.94
2022-09-01T13:05:38.686Z,101132.66
2022-09-01T13:08:18.320Z,101127.28
2022-09-01T13:10:48.388Z,101126.50
2022-09-01T13:13:16.320Z,101123.41
2022-09-01T13:15:50.305Z,101115.19
2022-09-01T13:18:19.299Z,101115.63
2022-09-01T13:20:45.979Z,101106.34
2022-09-01T13:23:12.809Z,101119.31
2022-09-01T13:25:40.288Z,101109.81
2022-09-01T13:28:07.532Z,101108.13
2022-09-01T13:30:35.076Z,101112.91
2022-09-01T13:35:49.903Z,101100.94
2022-09-01T13:38:18.012Z,101098.91
2022-09-01T13:40:46.939Z,101101.50
2022-09-01T13:43:19.501Z,101103.97
2022-09-01T13:45:46.483Z,101099.88
2022-09-01T13:48:15.817Z,101103.06
2022-09-01T13:53:30.416Z,101091.72
2022-09-01T13:58:24.443Z,101096.78
2022-09-01T14:00:51.114Z,101096.44
2022-09-01T14:03:21.561Z,101093.97
2022-09-01T14:05:49.389Z,101092.03
2022-09-01T14:08:19.115Z,101094.53
2022-09-01T14:10:48.984Z,101080.19
2022-09-01T14:13:15.986Z,101081.69
2022-09-01T14:15:42.842Z,101078.94
2022-09-01T14:18:09.316Z,101078.94
2022-09-01T14:20:41.939Z,101084.72
2022-09-01T14:23:10.770Z,101078.22
2022-09-01T14:25:41.646Z,101074.69
2022-09-01T14:28:08.170Z,101076.81
2022-09-01T14:30:34.885Z,101069.97
2022-09-01T14:33:02.652Z,101069.50
2022-09-01T14:35:33.108Z,101080.81
2022-09-01T14:38:00.964Z,101083.13
2022-09-01T14:40:29.308Z,101063.19
2022-09-01T14:42:55.886Z,101066.38
2022-09-01T14:45:25.443Z,101065.72
2022-09-01T14:47:56.332Z,101057.25
2022-09-01T14:50:23.663Z,101052.00
2022-09-01T14:52:56.983Z,101052.00
2022-09-01T14:55:25.484Z,101048.38
2022-09-01T14:57:52.454Z,101050.19
2022-09-01T15:00:19.442Z,101048.38
2022-09-01T15:02:46.056Z,101044.75
2022-09-01T15:05:14.105Z,101049.13
2022-09-01T15:07:41.149Z,101046.34
2022-09-01T15:10:10.785Z,101048.63
2022-09-01T15:12:42.570Z,101041.94
2022-09-01T15:15:09.903Z,101043.03
2022-09-01T15:17:36.768Z,101048.97
2022-09-01T15:20:24.095Z,101043.63
2022-09-01T15:22:51.585Z,101037.66
2022-09-01T15:25:18.246Z,101040.31
2022-09-01T15:27:46.139Z,101039.75
2022-09-01T15:30:16.971Z,101032.03
2022-09-01T15:32:49.680Z,101033.94
2022-09-01T15:35:16.451Z,101031.16
2022-09-01T15:37:43.192Z,101033.31
2022-09-01T15:40:10.093Z,101038.53
2022-09-01T15:42:37.751Z,101029.69
2022-09-01T15:45:14.914Z,101029.78
2022-09-01T15:47:45.700Z,101029.78
2022-09-01T15:50:21.094Z,101027.09
2022-09-01T15:52:56.608Z,101025.06
2022-09-01T15:55:37.384Z,101021.66
2022-09-01T15:58:03.920Z,101024.78
2022-09-01T16:00:30.523Z,101026.00
2022-09-01T16:03:01.480Z,101019.53
2022-09-01T16:05:29.915Z,101017.84
2022-09-01T16:07:56.950Z,101023.97
2022-09-01T16:10:23.614Z,101015.72
2022-09-01T16:12:51.749Z,101015.72
2022-09-01T16:15:22.219Z,101018.41
2022-09-01T16:17:59.487Z,101011.34
2022-09-01T16:20:35.690Z,101013.72
2022-09-01T16:23:12.418Z,101014.66
2022-09-01T16:25:39.328Z,101011.13
2022-09-01T16:28:18.496Z,101006.53
2022-09-01T16:30:47.051Z,101007.28
2022-09-01T16:33:20.001Z,101007.16
2022-09-01T16:36:08.230Z,101007.81
2022-09-01T16:38:46.778Z,101001.50
2022-09-01T16:41:36.123Z,101007.28
2022-09-01T16:44:14.092Z,100994.53
2022-09-01T16:47:14.526Z,100990.69
2022-09-01T16:49:58.454Z,100995.19
2022-09-01T16:52:31.988Z,100990.56
2022-09-01T16:55:22.499Z,100992.94
2022-09-01T16:58:31.798Z,100994.53
2022-09-01T17:01:47.316Z,100987.72
2022-09-01T17:04:31.083Z,100989.28
2022-09-01T17:07:24.161Z,100988.53
2022-09-01T17:10:12.908Z,100986.81
2022-09-01T17:12:44.222Z,100990.25
2022-09-01T17:15:18.072Z,100987.69
2022-09-01T17:17:44.470Z,100982.34
2022-09-01T17:20:13.064Z,100981.47
2022-09-01T17:22:49.408Z,100982.75
2022-09-01T17:25:28.617Z,100985.06
2022-09-01T17:28:07.885Z,100974.59
2022-09-01T17:30:44.649Z,100977.66
2022-09-01T17:33:34.432Z,100972.88
2022-09-01T17:36:18.656Z,100976.69
2022-09-01T17:39:10.038Z,100980.63
2022-09-01T17:42:02.826Z,100980.97
2022-09-01T17:44:45.341Z,100983.91
2022-09-01T17:47:20.780Z,100983.50
2022-09-01T17:50:09.656Z,100982.19
2022-09-01T17:52:42.393Z,100984.28
2022-09-01T17:55:32.758Z,100982.97
2022-09-01T17:58:13.526Z,100981.69
2022-09-01T18:01:09.774Z,100977.78
2022-09-01T18:03:45.525Z,100979.03
2022-09-01T18:06:34.618Z,100977.81
2022-09-01T18:09:02.480Z,100982.59
2022-09-01T18:11:42.612Z,100983.00
2022-09-01T18:14:15.463Z,100987.66
2022-09-01T18:17:04.330Z,100989.78
2022-09-01T18:19:38.925Z,100992.81
2022-09-01T18:22:18.719Z,100993.22
2022-09-01T18:24:56.478Z,100997.22
2022-09-01T18:27:24.598Z,101004.56
2022-09-01T18:29:52.828Z,101009.53
2022-09-01T18:32:45.946Z,101007.81
2022-09-01T19:16:41.997Z,101029.44
2022-09-01T19:19:20.863Z,101024.84
2022-09-01T19:21:51.853Z,101029.63
2022-09-01T19:24:41.795Z,101031.41
2022-09-01T19:27:15.100Z,101031.75
2022-09-01T19:29:49.094Z,101034.34
2022-09-01T19:32:19.732Z,101030.06
2022-09-01T19:34:58.416Z,101030.19
2022-09-01T19:37:25.974Z,101037.44
2022-09-01T19:39:54.418Z,101027.81
2022-09-01T19:42:31.589Z,101041.38
2022-09-01T19:45:09.467Z,101035.38
2022-09-01T19:47:58.859Z,101033.91
2022-09-01T19:50:35.060Z,101039.31
2022-09-01T19:53:31.443Z,101040.19
2022-09-01T19:56:13.356Z,101041.31
2022-09-01T19:58:46.534Z,101043.97
2022-09-01T20:01:21.248Z,101045.06
2022-09-01T20:03:57.405Z,101045.94
2022-09-01T20:06:42.738Z,101041.66
2022-09-01T20:09:16.682Z,101046.44
2022-09-01T20:11:53.191Z,101041.53
2022-09-01T20:14:52.013Z,101036.41
2022-09-01T20:17:36.446Z,101041.91
2022-09-01T20:20:17.159Z,101048.94
2022-09-01T20:22:51.635Z,101049.03
2022-09-01T20:25:23.772Z,101046.47
2022-09-01T20:27:57.833Z,101042.22
2022-09-01T20:30:52.316Z,101054.75
2022-09-01T20:33:37.274Z,101055.72
2022-09-01T20:36:19.272Z,101046.97
2022-09-01T20:39:21.813Z,101050.44
2022-09-01T20:41:49.153Z,101053.16
2022-09-01T20:44:35.870Z,101055.13
2022-09-01T20:47:05.349Z,101051.84
2022-09-01T20:49:38.263Z,101041.56
2022-09-01T20:52:19.796Z,101044.38
2022-09-01T20:54:59.105Z,101040.94
2022-09-01T20:57:47.342Z,101040.41
2022-09-01T21:00:21.662Z,101048.63
2022-09-01T21:02:54.424Z,101048.63
2022-09-01T21:05:23.979Z,101048.72
2022-09-01T21:08:09.217Z,101053.19
2022-09-01T21:10:51.615Z,101050.66
2022-09-01T21:13:52.937Z,101046.56
2022-09-01T21:16:44.001Z,101050.22
2022-09-01T21:19:27.361Z,101046.09
2022-09-01T21:22:05.656Z,101049.66
2022-09-01T21:24:33.030Z,101043.91
2022-09-01T21:27:05.087Z,101042.25
2022-09-01T21:29:39.746Z,101048.59
2022-09-01T21:32:06.335Z,101049.06
2022-09-01T21:34:32.927Z,101035.78
2022-09-01T21:37:00.594Z,101045.56
2022-09-01T21:39:27.107Z,101041.94
2022-09-01T21:41:54.064Z,101039.38
2022-09-01T21:44:21.206Z,101031.53
2022-09-01T21:46:48.784Z,101043.13
2022-09-01T21:49:15.286Z,101039.69
2022-09-01T21:51:42.195Z,101037.13
2022-09-01T21:54:09.229Z,101037.97
2022-09-01T21:56:36.083Z,101021.31
2022-09-01T21:59:02.553Z,101034.63
2022-09-01T22:01:31.829Z,101021.34
2022-09-01T22:03:58.882Z,101025.63
2022-09-01T22:06:26.623Z,101028.28
2022-09-01T22:08:54.243Z,101026.41
2022-09-01T22:11:21.852Z,101022.03
2022-09-01T22:13:49.679Z,101028.13
2022-09-01T22:16:18.919Z,101030.94
2022-09-01T22:18:46.160Z,101020.16
2022-09-01T22:21:14.303Z,101021.16
2022-09-01T22:23:41.235Z,101020.16
2022-09-01T22:26:11.408Z,101014.81
2022-09-01T22:28:41.921Z,101014.81
2022-09-01T22:31:13.824Z,101019.28
2022-09-01T22:33:40.322Z,101023.56
2022-09-01T22:36:07.584Z,101018.34
2022-09-01T22:38:34.708Z,101015.59
2022-09-01T22:41:02.254Z,101013.88
2022-09-01T22:43:30.294Z,101012.09
2022-09-01T22:45:58.165Z,101009.59
2022-09-01T22:48:27.068Z,101010.47
2022-09-01T22:50:54.119Z,101006.84
2022-09-01T22:53:21.759Z,101006.94
2022-09-01T22:55:50.867Z,101007.97
2022-09-01T22:58:18.276Z,101010.53
2022-09-01T23:00:49.300Z,101008.88
2022-09-01T23:03:16.970Z,100999.31
2022-09-01T23:05:44.746Z,101005.59
2022-09-01T23:08:12.275Z,101005.50
2022-09-01T23:10:39.040Z,100997.44
2022-09-01T23:13:05.610Z,100992.31
2022-09-01T23:15:32.515Z,100997.78
2022-09-01T23:17:59.028Z,100993.31
2022-09-01T23:20:25.686Z,100989.91
2022-09-01T23:22:52.301Z,100996.13
2022-09-01T23:25:18.989Z,100998.84
2022-09-01T23:27:45.676Z,100991.84
2022-09-01T23:30:14.812Z,100999.72
2022-09-01T23:32:41.442Z,100988.31
2022-09-01T23:35:08.642Z,100992.84
2022-09-01T23:37:35.175Z,100996.53
2022-09-01T23:40:02.300Z,100997.41
2022-09-01T23:42:28.811Z,100987.75
2022-09-01T23:44:55.302Z,100990.59
2022-09-01T23:47:21.784Z,100996.66
2022-09-01T23:49:48.252Z,100994.19
2022-09-01T23:52:15.960Z,100986.22
2022-09-01T23:54:42.417Z,100985.19
2022-09-01T23:57:09.017Z,100982.69
2022-09-01T23:59:35.490Z,100987.38
